^^
Meteo Knjazevac Station Historical Data
Daily Summary for June 8, 2021 Units:  Both    English   Metric
Daily Weekly Monthly Yearly Custom
  High: Low: Average:
Temperature: 38.8 °F /  3.8 °C 26.6 °F /  -3 °C 33.2 °F /  0.7 °C
Dew Point: 35 °F /  1.7 °C 26.1 °F /  -3.3 °C 31.5 °F /  -0.3 °C
Humidity: 99% 84% 94%
Wind Speed: 12mph /  19.3km/h - 2.4mph /  3.9km/h
Wind Gust: 17mph /  27.4km/h - -
Wind- - West
Pressure: 29.90 in /  1012.4 hPa 29.80 in /  1009 hPa -
Precipitation: 0.00 in /  0 mm    
Historical Graphs
 
 
Tabular Data for June 8, 2021
Time Temperature Dew Point Pressure Wind Wind Speed Wind Gust Humidity Rainfall Rate (Hourly) solar Conditions
00:00 33.4 °F /  0.8 °C 32.9 °F /  0.5 °C 29.80in /  1009hPa WNW 1mph /  1.6km/h 6mph /  9.7km/h 98% 0.00in /  0mm 0 W/m2
00:10 33.3 °F /  0.7 °C 32.8 °F /  0.4 °C 29.80in /  1009hPa WNW 3mph /  4.8km/h 8mph /  12.9km/h 98% 0.00in /  0mm 0 W/m2
00:20 33.3 °F /  0.7 °C 32.8 °F /  0.4 °C 29.81in /  1009.4hPa WNW 1mph /  1.6km/h 8mph /  12.9km/h 98% 0.00in /  0mm 0 W/m2
00:30 33.4 °F /  0.8 °C 32.9 °F /  0.5 °C 29.81in /  1009.4hPa WNW 2mph /  3.2km/h 7mph /  11.3km/h 98% 0.00in /  0mm 0 W/m2
00:40 33.3 °F /  0.7 °C 32.8 °F /  0.4 °C 29.81in /  1009.4hPa NW 1mph /  1.6km/h 8mph /  12.9km/h 98% 0.00in /  0mm 0 W/m2
00:50 33.3 °F /  0.7 °C 32.8 °F /  0.4 °C 29.82in /  1009.7hPa NW 1mph /  1.6km/h 6mph /  9.7km/h 98% 0.00in /  0mm 0 W/m2
01:00 33.3 °F /  0.7 °C 32.8 °F /  0.4 °C 29.82in /  1009.7hPa North 2mph /  3.2km/h 8mph /  12.9km/h 98% 0.00in /  0mm 0 W/m2
01:10 33.3 °F /  0.7 °C 32.8 °F /  0.4 °C 29.82in /  1009.7hPa NNW 2mph /  3.2km/h 9mph /  14.5km/h 98% 0.00in /  0mm 0 W/m2
01:20 33.3 °F /  0.7 °C 32.8 °F /  0.4 °C 29.82in /  1009.7hPa NNW 1mph /  1.6km/h 7mph /  11.3km/h 98% 0.00in /  0mm 0 W/m2
01:30 33.3 °F /  0.7 °C 32.8 °F /  0.4 °C 29.83in /  1010hPa NW 2mph /  3.2km/h 7mph /  11.3km/h 98% 0.00in /  0mm 0 W/m2
01:40 33.3 °F /  0.7 °C 32.8 °F /  0.4 °C 29.83in /  1010hPa NNW 1mph /  1.6km/h 8mph /  12.9km/h 98% 0.00in /  0mm 0 W/m2
01:50 33.3 °F /  0.7 °C 32.8 °F /  0.4 °C 29.83in /  1010hPa NW 1mph /  1.6km/h 7mph /  11.3km/h 98% 0.00in /  0mm 0 W/m2
02:00 33.3 °F /  0.7 °C 33 °F /  0.6 °C 29.83in /  1010hPa NNW 2mph /  3.2km/h 8mph /  12.9km/h 99% 0.00in /  0mm 0 W/m2
02:10 33.1 °F /  0.6 °C 32.8 °F /  0.4 °C 29.83in /  1010hPa NW 1mph /  1.6km/h 7mph /  11.3km/h 99% 0.00in /  0mm 0 W/m2
02:20 33.1 °F /  0.6 °C 32.8 °F /  0.4 °C 29.83in /  1010hPa NW 2mph /  3.2km/h 8mph /  12.9km/h 99% 0.00in /  0mm 0 W/m2
02:30 33.1 °F /  0.6 °C 32.8 °F /  0.4 °C 29.83in /  1010hPa NW 1mph /  1.6km/h 7mph /  11.3km/h 99% 0.00in /  0mm 0 W/m2
02:40 33.1 °F /  0.6 °C 32.8 °F /  0.4 °C 29.83in /  1010hPa NNW 2mph /  3.2km/h 8mph /  12.9km/h 99% 0.00in /  0mm 0 W/m2
02:50 33.1 °F /  0.6 °C 32.8 °F /  0.4 °C 29.83in /  1010hPa NNW 1mph /  1.6km/h 8mph /  12.9km/h 99% 0.00in /  0mm 0 W/m2
03:00 33.1 °F /  0.6 °C 32.8 °F /  0.4 °C 29.83in /  1010hPa NNW 1mph /  1.6km/h 8mph /  12.9km/h 99% 0.00in /  0mm 0 W/m2
03:10 33.1 °F /  0.6 °C 32.6 °F /  0.3 °C 29.83in /  1010hPa NW 1mph /  1.6km/h 7mph /  11.3km/h 98% 0.00in /  0mm 0 W/m2
03:20 33.1 °F /  0.6 °C 32.6 °F /  0.3 °C 29.83in /  1010hPa NW 1mph /  1.6km/h 6mph /  9.7km/h 98% 0.00in /  0mm 0 W/m2
03:30 33.1 °F /  0.6 °C 32.6 °F /  0.3 °C 29.83in /  1010hPa NW 1mph /  1.6km/h 6mph /  9.7km/h 98% 0.00in /  0mm 0 W/m2
03:40 33.1 °F /  0.6 °C 32.6 °F /  0.3 °C 29.83in /  1010hPa NNW 3mph /  4.8km/h 8mph /  12.9km/h 98% 0.00in /  0mm 0 W/m2
03:50 33.1 °F /  0.6 °C 32.6 °F /  0.3 °C 29.84in /  1010.4hPa NW 3mph /  4.8km/h 7mph /  11.3km/h 98% 0.00in /  0mm 0 W/m2
04:00 33.1 °F /  0.6 °C 32.6 °F /  0.3 °C 29.84in /  1010.4hPa NNW 1mph /  1.6km/h 7mph /  11.3km/h 98% 0.00in /  0mm 0 W/m2
04:10 33.1 °F /  0.6 °C 32.1 °F /  0.1 °C 29.84in /  1010.4hPa WNW 2mph /  3.2km/h 7mph /  11.3km/h 96% 0.00in /  0mm 0 W/m2
04:20 33.1 °F /  0.6 °C 32.1 °F /  0.1 °C 29.84in /  1010.4hPa NW 2mph /  3.2km/h 9mph /  14.5km/h 96% 0.00in /  0mm 0 W/m2
04:30 33.1 °F /  0.6 °C 32.1 °F /  0.1 °C 29.84in /  1010.4hPa NW 2mph /  3.2km/h 8mph /  12.9km/h 96% 0.00in /  0mm 0 W/m2
04:40 33.1 °F /  0.6 °C 32.1 °F /  0.1 °C 29.84in /  1010.4hPa NNW 3mph /  4.8km/h 9mph /  14.5km/h 96% 0.00in /  0mm 0 W/m2
04:50 33.1 °F /  0.6 °C 32.1 °F /  0.1 °C 29.85in /  1010.7hPa WNW 3mph /  4.8km/h 12mph /  19.3km/h 96% 0.00in /  0mm 0 W/m2
05:00 33.1 °F /  0.6 °C 32.1 °F /  0.1 °C 29.85in /  1010.7hPa North 3mph /  4.8km/h 8mph /  12.9km/h 96% 0.00in /  0mm 0 W/m2
05:10 33.3 °F /  0.7 °C 32 °F /  0 °C 29.85in /  1010.7hPa NNW 5mph /  8km/h 10mph /  16.1km/h 95% 0.00in /  0mm 0 W/m2
05:20 33.3 °F /  0.7 °C 32 °F /  0 °C 29.86in /  1011.1hPa North 3mph /  4.8km/h 9mph /  14.5km/h 95% 0.00in /  0mm 0 W/m2
05:30 33.3 °F /  0.7 °C 32 °F /  0 °C 29.86in /  1011.1hPa NNW 2mph /  3.2km/h 9mph /  14.5km/h 95% 0.00in /  0mm 0 W/m2
05:40 33.3 °F /  0.7 °C 31.7 °F /  -0.2 °C 29.86in /  1011.1hPa NW 2mph /  3.2km/h 8mph /  12.9km/h 94% 0.00in /  0mm 0 W/m2
05:50 33.3 °F /  0.7 °C 31.7 °F /  -0.2 °C 29.87in /  1011.4hPa NNW 3mph /  4.8km/h 9mph /  14.5km/h 94% 0.00in /  0mm 0 W/m2
06:00 33.3 °F /  0.7 °C 31.7 °F /  -0.2 °C 29.87in /  1011.4hPa NNW 2mph /  3.2km/h 8mph /  12.9km/h 94% 0.00in /  0mm 0 W/m2
06:10 33.3 °F /  0.7 °C 31.7 °F /  -0.2 °C 29.87in /  1011.4hPa NW 2mph /  3.2km/h 9mph /  14.5km/h 94% 0.00in /  0mm 0 W/m2
06:20 33.3 °F /  0.7 °C 31.7 °F /  -0.2 °C 29.87in /  1011.4hPa NW 2mph /  3.2km/h 9mph /  14.5km/h 94% 0.00in /  0mm 0 W/m2
06:30 33.3 °F /  0.7 °C 31.7 °F /  -0.2 °C 29.88in /  1011.7hPa NNW 2mph /  3.2km/h 10mph /  16.1km/h 94% 0.00in /  0mm 0 W/m2
06:40 33.3 °F /  0.7 °C 31.7 °F /  -0.2 °C 29.88in /  1011.7hPa NNW 3mph /  4.8km/h 9mph /  14.5km/h 94% 0.00in /  0mm 0 W/m2
06:50 33.4 °F /  0.8 °C 31.6 °F /  -0.2 °C 29.88in /  1011.7hPa NNW 3mph /  4.8km/h 9mph /  14.5km/h 93% 0.00in /  0mm 0 W/m2
07:00 33.4 °F /  0.8 °C 31.6 °F /  -0.2 °C 29.89in /  1012.1hPa NNW 3mph /  4.8km/h 8mph /  12.9km/h 93% 0.00in /  0mm 1 W/m2
07:10 33.4 °F /  0.8 °C 31.6 °F /  -0.2 °C 29.89in /  1012.1hPa NNW 2mph /  3.2km/h 9mph /  14.5km/h 93% 0.00in /  0mm 2 W/m2
07:20 33.4 °F /  0.8 °C 31.6 °F /  -0.2 °C 29.89in /  1012.1hPa NW 1mph /  1.6km/h 7mph /  11.3km/h 93% 0.00in /  0mm 5 W/m2
07:30 33.4 °F /  0.8 °C 31.6 °F /  -0.2 °C 29.89in /  1012.1hPa NNW 2mph /  3.2km/h 9mph /  14.5km/h 93% 0.00in /  0mm 7 W/m2
07:40 33.6 °F /  0.9 °C 31.8 °F /  -0.1 °C 29.89in /  1012.1hPa NW 1mph /  1.6km/h 7mph /  11.3km/h 93% 0.00in /  0mm 8 W/m2
07:50 33.6 °F /  0.9 °C 32.1 °F /  0.1 °C 29.89in /  1012.1hPa Calm   5mph /  8km/h 94% 0.00in /  0mm 9 W/m2
08:00 33.6 °F /  0.9 °C 32 °F /  0 °C 29.89in /  1012.1hPa Calm   3mph /  4.8km/h 94% 0.00in /  0mm 6 W/m2
08:10 33.4 °F /  0.8 °C 31.9 °F /  -0.1 °C 29.89in /  1012.1hPa Calm   5mph /  8km/h 94% 0.00in /  0mm 15 W/m2
08:20 33.4 °F /  0.8 °C 31.9 °F /  -0.1 °C 29.89in /  1012.1hPa NNW 1mph /  1.6km/h 3mph /  4.8km/h 94% 0.00in /  0mm 19 W/m2
08:30 33.6 °F /  0.9 °C 32.1 °F /  0.1 °C 29.89in /  1012.1hPa Calm   4mph /  6.4km/h 94% 0.00in /  0mm 24 W/m2
08:40 33.6 °F /  0.9 °C 32.3 °F /  0.2 °C 29.89in /  1012.1hPa Calm   3mph /  4.8km/h 95% 0.00in /  0mm 43 W/m2
08:50 33.6 °F /  0.9 °C 32.3 °F /  0.2 °C 29.89in /  1012.1hPa Calm   4mph /  6.4km/h 95% 0.00in /  0mm 64 W/m2
09:00 33.8 °F /  1 °C 32.5 °F /  0.3 °C 29.89in /  1012.1hPa NNW 1mph /  1.6km/h 5mph /  8km/h 95% 0.00in /  0mm 52 W/m2
09:10 34 °F /  1.1 °C 32.7 °F /  0.4 °C 29.90in /  1012.4hPa NW 1mph /  1.6km/h 5mph /  8km/h 95% 0.00in /  0mm 78 W/m2
09:20 34 °F /  1.1 °C 32.7 °F /  0.4 °C 29.89in /  1012.1hPa WSW 1mph /  1.6km/h 7mph /  11.3km/h 95% 0.00in /  0mm 95 W/m2
09:30 34.2 °F /  1.2 °C 32.6 °F /  0.3 °C 29.89in /  1012.1hPa WNW 2mph /  3.2km/h 6mph /  9.7km/h 94% 0.00in /  0mm 125 W/m2
09:40 34.5 °F /  1.4 °C 33 °F /  0.6 °C 29.89in /  1012.1hPa WNW 1mph /  1.6km/h 6mph /  9.7km/h 94% 0.00in /  0mm 107 W/m2
09:50 34.5 °F /  1.4 °C 33 °F /  0.6 °C 29.89in /  1012.1hPa WNW 2mph /  3.2km/h 10mph /  16.1km/h 94% 0.00in /  0mm 114 W/m2
10:00 34.7 °F /  1.5 °C 32.9 °F /  0.5 °C 29.89in /  1012.1hPa West 2mph /  3.2km/h 10mph /  16.1km/h 93% 0.00in /  0mm 105 W/m2
10:10 34.7 °F /  1.5 °C 32.9 °F /  0.5 °C 29.89in /  1012.1hPa WNW 1mph /  1.6km/h 7mph /  11.3km/h 93% 0.00in /  0mm 142 W/m2
10:20 34.9 °F /  1.6 °C 32.5 °F /  0.3 °C 29.89in /  1012.1hPa WNW 2mph /  3.2km/h 9mph /  14.5km/h 91% 0.00in /  0mm 121 W/m2
10:30 35 °F /  1.7 °C 33.2 °F /  0.7 °C 29.88in /  1011.7hPa WNW 1mph /  1.6km/h 7mph /  11.3km/h 93% 0.00in /  0mm 128 W/m2
10:40 35.2 °F /  1.8 °C 32.9 °F /  0.5 °C 29.88in /  1011.7hPa WNW 1mph /  1.6km/h 6mph /  9.7km/h 91% 0.00in /  0mm 152 W/m2
10:50 35.4 °F /  1.9 °C 33.1 °F /  0.6 °C 29.88in /  1011.7hPa WNW 1mph /  1.6km/h 5mph /  8km/h 91% 0.00in /  0mm 166 W/m2
11:00 35.4 °F /  1.9 °C 32.8 °F /  0.4 °C 29.88in /  1011.7hPa West 1mph /  1.6km/h 8mph /  12.9km/h 90% 0.00in /  0mm 186 W/m2
11:10 35.6 °F /  2 °C 33 °F /  0.6 °C 29.88in /  1011.7hPa SW 9mph /  14.5km/h 15mph /  24.1km/h 90% 0.00in /  0mm 195 W/m2
11:20 35.8 °F /  2.1 °C 33.1 °F /  0.6 °C 29.87in /  1011.4hPa SW 7mph /  11.3km/h 14mph /  22.5km/h 90% 0.00in /  0mm 167 W/m2
11:30 35.8 °F /  2.1 °C 32.9 °F /  0.5 °C 29.88in /  1011.7hPa SW 9mph /  14.5km/h 15mph /  24.1km/h 89% 0.00in /  0mm 104 W/m2
11:40 35.6 °F /  2 °C 32.7 °F /  0.4 °C 29.88in /  1011.7hPa SW 9mph /  14.5km/h 17mph /  27.4km/h 89% 0.00in /  0mm 85 W/m2
11:50 35.4 °F /  1.9 °C 32.2 °F /  0.1 °C 29.88in /  1011.7hPa SW 12mph /  19.3km/h 17mph /  27.4km/h 88% 0.00in /  0mm 95 W/m2
12:00 35.4 °F /  1.9 °C 32.5 °F /  0.3 °C 29.88in /  1011.7hPa SW 8mph /  12.9km/h 15mph /  24.1km/h 89% 0.00in /  0mm 102 W/m2
12:10 35.6 °F /  2 °C 32.4 °F /  0.2 °C 29.88in /  1011.7hPa SW 10mph /  16.1km/h 15mph /  24.1km/h 88% 0.00in /  0mm 100 W/m2
12:20 35.8 °F /  2.1 °C 32.8 °F /  0.4 °C 29.88in /  1011.7hPa SW 7mph /  11.3km/h 16mph /  25.7km/h 89% 0.00in /  0mm 133 W/m2
12:30 36 °F /  2.2 °C 33 °F /  0.6 °C 29.88in /  1011.7hPa SW 7mph /  11.3km/h 15mph /  24.1km/h 89% 0.00in /  0mm 151 W/m2
12:40 36.1 °F /  2.3 °C 32.9 °F /  0.5 °C 29.88in /  1011.7hPa SW 7mph /  11.3km/h 16mph /  25.7km/h 88% 0.00in /  0mm 181 W/m2
12:50 36.5 °F /  2.5 °C 33.3 °F /  0.7 °C 29.87in /  1011.4hPa SW 7mph /  11.3km/h 13mph /  20.9km/h 88% 0.00in /  0mm 172 W/m2
13:00 36.9 °F /  2.7 °C 33.6 °F /  0.9 °C 29.87in /  1011.4hPa SW 7mph /  11.3km/h 12mph /  19.3km/h 88% 0.00in /  0mm 271 W/m2
13:10 37.4 °F /  3 °C 34.2 °F /  1.2 °C 29.87in /  1011.4hPa SSW 8mph /  12.9km/h 13mph /  20.9km/h 88% 0.00in /  0mm 257 W/m2
13:20 38.1 °F /  3.4 °C 34.9 °F /  1.6 °C 29.87in /  1011.4hPa SSW 5mph /  8km/h 13mph /  20.9km/h 88% 0.00in /  0mm 243 W/m2
13:30 38.5 °F /  3.6 °C 34.7 °F /  1.5 °C 29.87in /  1011.4hPa SSW 5mph /  8km/h 13mph /  20.9km/h 86% 0.00in /  0mm 227 W/m2
13:40 38.8 °F /  3.8 °C 35 °F /  1.7 °C 29.87in /  1011.4hPa SSW 3mph /  4.8km/h 8mph /  12.9km/h 86% 0.00in /  0mm 210 W/m2
13:50 38.8 °F /  3.8 °C 34.7 °F /  1.5 °C 29.87in /  1011.4hPa SSW 6mph /  9.7km/h 9mph /  14.5km/h 85% 0.00in /  0mm 188 W/m2
14:00 38.8 °F /  3.8 °C 34.7 °F /  1.5 °C 29.86in /  1011.1hPa SSE 3mph /  4.8km/h 9mph /  14.5km/h 85% 0.00in /  0mm 175 W/m2
14:10 38.7 °F /  3.7 °C 34.8 °F /  1.6 °C 29.87in /  1011.4hPa SE 5mph /  8km/h 10mph /  16.1km/h 86% 0.00in /  0mm 156 W/m2
14:20 38.8 °F /  3.8 °C 35 °F /  1.7 °C 29.87in /  1011.4hPa SSE 6mph /  9.7km/h 10mph /  16.1km/h 86% 0.00in /  0mm 137 W/m2
14:30 38.5 °F /  3.6 °C 34.4 °F /  1.3 °C 29.87in /  1011.4hPa South 5mph /  8km/h 10mph /  16.1km/h 85% 0.00in /  0mm 118 W/m2
14:40 38.8 °F /  3.8 °C 34.7 °F /  1.5 °C 29.88in /  1011.7hPa SSW 5mph /  8km/h 8mph /  12.9km/h 85% 0.00in /  0mm 99 W/m2
14:50 38.8 °F /  3.8 °C 34.4 °F /  1.3 °C 29.88in /  1011.7hPa SSW 3mph /  4.8km/h 9mph /  14.5km/h 84% 0.00in /  0mm 80 W/m2
15:00 38.7 °F /  3.7 °C 34.2 °F /  1.2 °C 29.88in /  1011.7hPa SSW 5mph /  8km/h 9mph /  14.5km/h 84% 0.00in /  0mm 61 W/m2
15:10 38.5 °F /  3.6 °C 34.1 °F /  1.2 °C 29.88in /  1011.7hPa SSW 3mph /  4.8km/h 6mph /  9.7km/h 84% 0.00in /  0mm 43 W/m2
15:20 38.3 °F /  3.5 °C 33.9 °F /  1.1 °C 29.88in /  1011.7hPa SSW 3mph /  4.8km/h 6mph /  9.7km/h 84% 0.00in /  0mm 27 W/m2
15:30 38.1 °F /  3.4 °C 34 °F /  1.1 °C 29.88in /  1011.7hPa SSW 2mph /  3.2km/h 5mph /  8km/h 85% 0.00in /  0mm 12 W/m2
15:40 37.6 °F /  3.1 °C 33.5 °F /  0.8 °C 29.88in /  1011.7hPa South 2mph /  3.2km/h 5mph /  8km/h 85% 0.00in /  0mm 16 W/m2
15:50 36.9 °F /  2.7 °C 33.1 °F /  0.6 °C 29.88in /  1011.7hPa South 1mph /  1.6km/h 5mph /  8km/h 86% 0.00in /  0mm 7 W/m2
16:00 36.1 °F /  2.3 °C 32.9 °F /  0.5 °C 29.88in /  1011.7hPa SW 2mph /  3.2km/h 6mph /  9.7km/h 88% 0.00in /  0mm 0 W/m2
16:10 35.6 °F /  2 °C 32.7 °F /  0.4 °C 29.88in /  1011.7hPa South 2mph /  3.2km/h 5mph /  8km/h 89% 0.00in /  0mm 0 W/m2
16:20 35.1 °F /  1.7 °C 32.1 °F /  0.1 °C 29.88in /  1011.7hPa WSW 1mph /  1.6km/h 4mph /  6.4km/h 89% 0.00in /  0mm 0 W/m2
16:30 34.5 °F /  1.4 °C 31.9 °F /  -0.1 °C 29.88in /  1011.7hPa SW 2mph /  3.2km/h 5mph /  8km/h 90% 0.00in /  0mm 0 W/m2
16:40 34.3 °F /  1.3 °C 31.7 °F /  -0.2 °C 29.87in /  1011.4hPa WSW 3mph /  4.8km/h 7mph /  11.3km/h 90% 0.00in /  0mm 0 W/m2
16:50 34 °F /  1.1 °C 31.4 °F /  -0.3 °C 29.88in /  1011.7hPa SW 6mph /  9.7km/h 8mph /  12.9km/h 90% 0.00in /  0mm 0 W/m2
17:00 34 °F /  1.1 °C 31.4 °F /  -0.3 °C 29.88in /  1011.7hPa SW 2mph /  3.2km/h 10mph /  16.1km/h 90% 0.00in /  0mm 0 W/m2
17:10 33.6 °F /  0.9 °C 31 °F /  -0.6 °C 29.88in /  1011.7hPa SW 1mph /  1.6km/h 3mph /  4.8km/h 90% 0.00in /  0mm 0 W/m2
17:20 33.4 °F /  0.8 °C 30.8 °F /  -0.7 °C 29.88in /  1011.7hPa SSW 1mph /  1.6km/h 3mph /  4.8km/h 90% 0.00in /  0mm 0 W/m2
17:30 33.3 °F /  0.7 °C 30.9 °F /  -0.6 °C 29.88in /  1011.7hPa SSW 2mph /  3.2km/h 6mph /  9.7km/h 91% 0.00in /  0mm 0 W/m2
17:40 33.1 °F /  0.6 °C 30.7 °F /  -0.7 °C 29.88in /  1011.7hPa SSW 2mph /  3.2km/h 4mph /  6.4km/h 91% 0.00in /  0mm 0 W/m2
17:50 32.5 °F /  0.3 °C 30.2 °F /  -1 °C 29.88in /  1011.7hPa Calm   2mph /  3.2km/h 91% 0.00in /  0mm 0 W/m2
18:00 32.4 °F /  0.2 °C 30.6 °F /  -0.8 °C 29.88in /  1011.7hPa Calm   2mph /  3.2km/h 93% 0.00in /  0mm 0 W/m2
18:10 32 °F /  0 °C 30.2 °F /  -1 °C 29.88in /  1011.7hPa Calm   2mph /  3.2km/h 93% 0.00in /  0mm 0 W/m2
18:20 31.8 °F /  -0.1 °C 30.3 °F /  -0.9 °C 29.88in /  1011.7hPa WNW 1mph /  1.6km/h 2mph /  3.2km/h 94% 0.00in /  0mm 0 W/m2
18:30 31.5 °F /  -0.3 °C 29.9 °F /  -1.2 °C 29.88in /  1011.7hPa Calm   3mph /  4.8km/h 94% 0.00in /  0mm 0 W/m2
18:40 31.6 °F /  -0.2 °C 30.1 °F /  -1.1 °C 29.88in /  1011.7hPa Calm   5mph /  8km/h 94% 0.00in /  0mm 0 W/m2
18:50 31.5 °F /  -0.3 °C 29.9 °F /  -1.2 °C 29.89in /  1012.1hPa Calm   3mph /  4.8km/h 94% 0.00in /  0mm 0 W/m2
19:00 30.9 °F /  -0.6 °C 29.4 °F /  -1.4 °C 29.89in /  1012.1hPa Calm   2mph /  3.2km/h 94% 0.00in /  0mm 0 W/m2
19:10 30.6 °F /  -0.8 °C 29.3 °F /  -1.5 °C 29.89in /  1012.1hPa Calm   1mph /  1.6km/h 95% 0.00in /  0mm 0 W/m2
19:20 30.4 °F /  -0.9 °C 29.1 °F /  -1.6 °C 29.88in /  1011.7hPa Calm   2mph /  3.2km/h 95% 0.00in /  0mm 0 W/m2
19:30 30.2 °F /  -1 °C 28.9 °F /  -1.7 °C 29.88in /  1011.7hPa WNW 1mph /  1.6km/h 2mph /  3.2km/h 95% 0.00in /  0mm 0 W/m2
19:40 30 °F /  -1.1 °C 29 °F /  -1.7 °C 29.88in /  1011.7hPa WNW 1mph /  1.6km/h 2mph /  3.2km/h 96% 0.00in /  0mm 0 W/m2
19:50 29.8 °F /  -1.2 °C 28.8 °F /  -1.8 °C 29.88in /  1011.7hPa Calm   2mph /  3.2km/h 96% 0.00in /  0mm 0 W/m2
20:00 29.5 °F /  -1.4 °C 28.5 °F /  -1.9 °C 29.88in /  1011.7hPa West 2mph /  3.2km/h 6mph /  9.7km/h 96% 0.00in /  0mm 0 W/m2
20:10 30 °F /  -1.1 °C 29 °F /  -1.7 °C 29.88in /  1011.7hPa SSW 2mph /  3.2km/h 8mph /  12.9km/h 96% 0.00in /  0mm 0 W/m2
20:20 29.8 °F /  -1.2 °C 28.8 °F /  -1.8 °C 29.87in /  1011.4hPa WNW 1mph /  1.6km/h 3mph /  4.8km/h 96% 0.00in /  0mm 0 W/m2
20:30 29.5 °F /  -1.4 °C 28.5 °F /  -1.9 °C 29.88in /  1011.7hPa West 2mph /  3.2km/h 5mph /  8km/h 96% 0.00in /  0mm 0 W/m2
20:40 28.9 °F /  -1.7 °C 27.9 °F /  -2.3 °C 29.88in /  1011.7hPa WNW 2mph /  3.2km/h 5mph /  8km/h 96% 0.00in /  0mm 0 W/m2
20:50 28.8 °F /  -1.8 °C 28.3 °F /  -2.1 °C 29.88in /  1011.7hPa WNW 2mph /  3.2km/h 5mph /  8km/h 98% 0.00in /  0mm 0 W/m2
21:00 28.8 °F /  -1.8 °C 28.3 °F /  -2.1 °C 29.88in /  1011.7hPa WNW 1mph /  1.6km/h 5mph /  8km/h 98% 0.00in /  0mm 0 W/m2
21:10 28.6 °F /  -1.9 °C 28.1 °F /  -2.2 °C 29.88in /  1011.7hPa NW 1mph /  1.6km/h 4mph /  6.4km/h 98% 0.00in /  0mm 0 W/m2
21:20 28 °F /  -2.2 °C 27 °F /  -2.8 °C 29.88in /  1011.7hPa WNW 2mph /  3.2km/h 3mph /  4.8km/h 96% 0.00in /  0mm 0 W/m2
21:30 27.9 °F /  -2.3 °C 26.9 °F /  -2.8 °C 29.88in /  1011.7hPa NW 1mph /  1.6km/h 3mph /  4.8km/h 96% 0.00in /  0mm 0 W/m2
21:40 27.5 °F /  -2.5 °C 26.5 °F /  -3.1 °C 29.88in /  1011.7hPa West 2mph /  3.2km/h 5mph /  8km/h 96% 0.00in /  0mm 0 W/m2
21:50 27.1 °F /  -2.7 °C 26.2 °F /  -3.2 °C 29.88in /  1011.7hPa West 3mph /  4.8km/h 4mph /  6.4km/h 96% 0.00in /  0mm 0 W/m2
22:00 27 °F /  -2.8 °C 26.5 °F /  -3.1 °C 29.88in /  1011.7hPa West 1mph /  1.6km/h 5mph /  8km/h 98% 0.00in /  0mm 0 W/m2
22:10 27 °F /  -2.8 °C 26.5 °F /  -3.1 °C 29.88in /  1011.7hPa WNW 2mph /  3.2km/h 3mph /  4.8km/h 98% 0.00in /  0mm 0 W/m2
22:20 26.8 °F /  -2.9 °C 26.3 °F /  -3.2 °C 29.88in /  1011.7hPa WNW 2mph /  3.2km/h 4mph /  6.4km/h 98% 0.00in /  0mm 0 W/m2
22:30 27 °F /  -2.8 °C 26.7 °F /  -2.9 °C 29.87in /  1011.4hPa NW 2mph /  3.2km/h 5mph /  8km/h 99% 0.00in /  0mm 0 W/m2
22:40 27.1 °F /  -2.7 °C 26.9 °F /  -2.8 °C 29.87in /  1011.4hPa WNW 2mph /  3.2km/h 4mph /  6.4km/h 99% 0.00in /  0mm 0 W/m2
22:50 27 °F /  -2.8 °C 26.7 °F /  -2.9 °C 29.87in /  1011.4hPa WNW 2mph /  3.2km/h 5mph /  8km/h 99% 0.00in /  0mm 0 W/m2
23:00 26.8 °F /  -2.9 °C 26.5 °F /  -3.1 °C 29.87in /  1011.4hPa NW 1mph /  1.6km/h 3mph /  4.8km/h 99% 0.00in /  0mm 0 W/m2
23:10 26.6 °F /  -3 °C 26.1 °F /  -3.3 °C 29.88in /  1011.7hPa NW 2mph /  3.2km/h 3mph /  4.8km/h 98% 0.00in /  0mm 0 W/m2
23:20 26.6 °F /  -3 °C 26.1 °F /  -3.3 °C 29.87in /  1011.4hPa NNW 2mph /  3.2km/h 4mph /  6.4km/h 98% 0.00in /  0mm 0 W/m2
23:30 26.6 °F /  -3 °C 26.4 °F /  -3.1 °C 29.87in /  1011.4hPa NW 2mph /  3.2km/h 4mph /  6.4km/h 99% 0.00in /  0mm 0 W/m2
23:40 27 °F /  -2.8 °C 26.7 °F /  -2.9 °C 29.87in /  1011.4hPa WNW 2mph /  3.2km/h 4mph /  6.4km/h 99% 0.00in /  0mm 0 W/m2
23:50 26.8 °F /  -2.9 °C 26.5 °F /  -3.1 °C 29.87in /  1011.4hPa Calm   3mph /  4.8km/h 99% 0.00in /  0mm 0 W/m2
Knjazevac, Serbia
Compliments of Weather Underground - 2 mb